Time;durP1;ratioP1;P1;durP2;ratioP2;P2;SDS_P1;SDS_P2;PMS_P1;PMS_P2;Temp;Humidity;BMP_temperature;BMP_pressure;BME280_temperature;BME280_humidity;BME280_pressure;Samples;Min_cycle;Max_cycle;Signal;HPM_P1;HPM_P2
2023/03/18 00:01:06;;;;;;;3.80;1.42;;;18.70;50.90;;;;;;5092682;28;20275;-71
2023/03/18 00:03:35;;;;;;;4.53;1.50;;;18.70;51.50;;;;;;5093056;28;20213;-71
2023/03/18 00:06:07;;;;;;;2.78;1.40;;;18.70;50.90;;;;;;5092866;28;20214;-71
2023/03/18 00:08:35;;;;;;;3.83;2.22;;;18.70;51.50;;;;;;5092430;28;20199;-71
2023/03/18 00:11:04;;;;;;;4.28;1.90;;;18.70;50.90;;;;;;5093048;28;20218;-71
2023/03/18 00:13:32;;;;;;;3.40;1.38;;;18.70;50.90;;;;;;5092874;28;20201;-71
2023/03/18 00:16:01;;;;;;;3.00;1.17;;;18.70;50.90;;;;;;5091086;28;20665;-71
2023/03/18 00:18:28;;;;;;;2.75;1.23;;;18.70;50.90;;;;;;5092496;28;20186;-71
2023/03/18 00:20:57;;;;;;;4.53;1.40;;;18.70;50.90;;;;;;5091342;28;20241;-71
2023/03/18 00:23:25;;;;;;;3.72;1.60;;;18.70;50.90;;;;;;5092470;28;20194;-71
2023/03/18 00:25:53;;;;;;;2.70;1.33;;;18.60;50.80;;;;;;5092780;28;20218;-71
2023/03/18 00:28:20;;;;;;;2.65;1.20;;;18.60;50.90;;;;;;5091376;28;20237;-71
2023/03/18 00:30:48;;;;;;;3.70;1.63;;;18.60;50.90;;;;;;5092648;28;20656;-71
2023/03/18 00:33:18;;;;;;;2.83;1.23;;;18.60;50.90;;;;;;5092579;28;20182;-71
2023/03/18 00:35:45;;;;;;;4.32;1.63;;;18.60;50.90;;;;;;5092519;28;20249;-71
2023/03/18 00:38:19;;;;;;;3.75;1.23;;;18.60;50.90;;;;;;5092269;28;20190;-71
2023/03/18 00:40:59;;;;;;;2.35;1.45;;;18.60;50.90;;;;;;5092531;28;20275;-71
2023/03/18 00:43:31;;;;;;;2.70;1.30;;;18.60;50.90;;;;;;5092241;28;20247;-71
2023/03/18 00:45:59;;;;;;;3.10;1.40;;;18.60;50.90;;;;;;5091960;28;20247;-71
2023/03/18 00:48:28;;;;;;;5.32;1.67;;;18.60;50.90;;;;;;5092482;28;20190;-71
2023/03/18 00:50:55;;;;;;;3.30;1.45;;;18.60;50.90;;;;;;5092100;28;20214;-71
2023/03/18 00:53:24;;;;;;;3.65;1.30;;;18.60;50.90;;;;;;5057009;28;20198;-71
2023/03/18 00:55:51;;;;;;;2.53;1.38;;;18.60;50.90;;;;;;5092475;28;20249;-72
2023/03/18 00:58:18;;;;;;;3.55;1.35;;;18.60;50.80;;;;;;5092348;28;20190;-70
2023/03/18 01:00:46;;;;;;;3.80;1.55;;;18.60;50.90;;;;;;5092000;28;20214;-71
2023/03/18 01:03:14;;;;;;;2.28;1.20;;;18.60;50.80;;;;;;5092102;28;20213;-71
2023/03/18 01:05:42;;;;;;;3.15;1.02;;;18.60;50.90;;;;;;5092137;28;20210;-71
2023/03/18 01:08:10;;;;;;;2.90;1.30;;;18.60;50.90;;;;;;5091957;28;20648;-71
2023/03/18 01:10:37;;;;;;;3.72;1.40;;;18.50;50.80;;;;;;5092053;28;20765;-71
2023/03/18 01:13:04;;;;;;;4.45;1.40;;;18.50;50.80;;;;;;5092225;28;20274;-71
2023/03/18 01:15:31;;;;;;;2.97;1.33;;;18.50;50.80;;;;;;5092062;28;20278;-71
2023/03/18 01:17:58;;;;;;;2.85;1.20;;;18.50;50.80;;;;;;5092205;28;20231;-71
2023/03/18 01:20:26;;;;;;;3.08;1.73;;;18.50;50.80;;;;;;5094608;28;20283;-72
2023/03/18 01:22:55;;;;;;;3.20;1.30;;;18.50;50.80;;;;;;5098478;28;20360;-71
2023/03/18 01:25:26;;;;;;;3.22;1.50;;;18.50;50.80;;;;;;5107497;28;20218;-72
2023/03/18 01:27:53;;;;;;;4.90;1.90;;;18.50;50.80;;;;;;5095782;28;20233;-71
2023/03/18 01:30:22;;;;;;;2.28;1.25;;;18.50;50.80;;;;;;5095966;28;20220;-71
2023/03/18 01:32:49;;;;;;;3.15;1.10;;;18.50;50.80;;;;;;5112158;28;20694;-71
2023/03/18 01:35:17;;;;;;;3.42;1.13;;;18.50;50.80;;;;;;5115892;28;20224;-71
2023/03/18 01:37:45;;;;;;;3.88;1.33;;;18.50;50.80;;;;;;5116271;28;20219;-71
2023/03/18 01:40:16;;;;;;;4.47;1.83;;;18.50;50.80;;;;;;5115690;28;20696;-71
2023/03/18 01:42:48;;;;;;;3.90;1.33;;;18.50;50.90;;;;;;5115640;28;20219;-71
2023/03/18 01:45:22;;;;;;;4.45;1.30;;;18.50;50.80;;;;;;5115192;28;20213;-71
2023/03/18 01:47:50;;;;;;;3.78;1.60;;;18.50;50.80;;;;;;5115687;28;20234;-71
2023/03/18 01:50:22;;;;;;;4.22;1.63;;;18.40;50.80;;;;;;5115735;28;20615;-71
2023/03/18 01:52:53;;;;;;;4.25;1.30;;;18.50;50.90;;;;;;5115950;28;20281;-71
2023/03/18 01:55:25;;;;;;;3.10;1.42;;;18.50;50.90;;;;;;5115861;28;20217;-71
2023/03/18 01:57:52;;;;;;;3.55;1.65;;;18.50;50.90;;;;;;5115420;28;20571;-71
2023/03/18 02:00:20;;;;;;;2.65;1.30;;;18.40;50.80;;;;;;5115341;28;20689;-71
2023/03/18 02:02:50;;;;;;;3.28;1.50;;;18.40;50.80;;;;;;5115701;28;20216;-71
2023/03/18 02:05:20;;;;;;;3.88;1.35;;;18.40;50.80;;;;;;5115602;27;20224;-71
2023/03/18 02:07:48;;;;;;;3.75;1.40;;;18.40;50.80;;;;;;5079805;28;20695;-72
2023/03/18 02:10:19;;;;;;;2.72;1.40;;;18.40;50.80;;;;;;5115620;28;20212;-71
2023/03/18 02:12:52;;;;;;;3.03;1.15;;;18.40;50.80;;;;;;5115429;28;20185;-71
2023/03/18 02:15:23;;;;;;;2.75;1.38;;;18.40;50.80;;;;;;5115058;28;20223;-71
2023/03/18 02:17:56;;;;;;;3.72;1.67;;;18.40;50.80;;;;;;5115098;28;20643;-71
2023/03/18 02:20:48;;;;;;;3.58;1.40;;;18.40;50.90;;;;;;5115347;28;20278;-71
2023/03/18 02:23:25;;;;;;;4.00;1.30;;;18.40;50.80;;;;;;5115285;28;20270;-71
2023/03/18 02:26:00;;;;;;;4.20;1.50;;;18.40;50.90;;;;;;5114900;28;20690;-72
2023/03/18 02:28:32;;;;;;;6.03;1.33;;;18.40;50.80;;;;;;5114937;28;20602;-70
2023/03/18 02:31:02;;;;;;;4.57;1.27;;;18.40;50.90;;;;;;5114969;28;20219;-71
2023/03/18 02:33:34;;;;;;;3.90;1.48;;;18.40;50.90;;;;;;5113839;28;20181;-70
2023/03/18 02:36:04;;;;;;;2.80;1.27;;;18.40;50.90;;;;;;5113980;28;20217;-71
2023/03/18 02:38:32;;;;;;;3.38;1.30;;;18.40;50.90;;;;;;5114762;28;20189;-71
2023/03/18 02:40:59;;;;;;;2.67;1.30;;;18.40;50.90;;;;;;5115094;28;20261;-71
2023/03/18 02:43:30;;;;;;;3.25;1.33;;;18.40;50.90;;;;;;5114875;28;20242;-71
2023/03/18 02:46:29;;;;;;;2.83;1.10;;;18.40;50.90;;;;;;5114721;28;20221;-71
2023/03/18 02:48:57;;;;;;;4.78;1.40;;;18.40;50.90;;;;;;5103070;27;20250;-71
2023/03/18 02:51:25;;;;;;;2.08;1.20;;;18.40;51.00;;;;;;5115003;28;20232;-71
2023/03/18 02:53:54;;;;;;;3.72;1.45;;;18.40;50.90;;;;;;5114687;28;20189;-70
2023/03/18 02:56:22;;;;;;;3.42;1.55;;;18.40;51.00;;;;;;5114413;28;20751;-71
2023/03/18 02:58:51;;;;;;;2.92;1.50;;;18.30;50.90;;;;;;5114630;28;20221;-70
2023/03/18 03:01:18;;;;;;;4.80;1.48;;;18.40;50.90;;;;;;5114286;28;20224;-71
2023/03/18 03:03:45;;;;;;;3.90;1.17;;;18.30;50.80;;;;;;5114425;28;20221;-71
2023/03/18 03:06:13;;;;;;;3.35;1.45;;;18.40;51.00;;;;;;5114217;28;20213;-71
2023/03/18 03:08:40;;;;;;;2.75;1.30;;;18.30;50.90;;;;;;5114482;28;20219;-71
2023/03/18 03:11:09;;;;;;;4.45;1.15;;;18.30;50.90;;;;;;5114411;28;20217;-71
2023/03/18 03:13:36;;;;;;;3.20;1.35;;;18.30;50.90;;;;;;5114938;27;20185;-71
2023/03/18 03:16:06;;;;;;;2.65;1.30;;;18.30;50.90;;;;;;5115312;28;20217;-71
2023/03/18 03:18:34;;;;;;;4.75;1.30;;;18.30;50.90;;;;;;5114375;28;20658;-71
2023/03/18 03:21:01;;;;;;;3.65;1.30;;;18.30;50.90;;;;;;5113960;28;20225;-71
2023/03/18 03:23:28;;;;;;;3.63;1.42;;;18.30;50.90;;;;;;5112901;28;20225;-71
2023/03/18 03:25:56;;;;;;;2.53;1.20;;;18.30;51.00;;;;;;5113994;28;20258;-71
2023/03/18 03:28:24;;;;;;;3.42;1.40;;;18.30;51.00;;;;;;5113582;28;20777;-71
2023/03/18 03:30:51;;;;;;;2.40;1.20;;;18.30;51.00;;;;;;5113924;28;20224;-71
2023/03/18 03:33:20;;;;;;;2.50;1.10;;;18.30;51.00;;;;;;5113959;28;20193;-71
2023/03/18 03:35:47;;;;;;;3.13;1.50;;;18.30;51.00;;;;;;5113911;28;20262;-72
2023/03/18 03:38:14;;;;;;;3.35;1.23;;;18.30;51.00;;;;;;5113882;28;20211;-71
2023/03/18 03:40:42;;;;;;;2.08;1.30;;;18.30;51.00;;;;;;5113849;28;20217;-71
2023/03/18 03:43:12;;;;;;;4.03;1.42;;;18.30;51.00;;;;;;5112779;28;20457;-71
2023/03/18 03:45:39;;;;;;;2.53;1.50;;;18.30;51.00;;;;;;5112138;28;20304;-71
2023/03/18 03:48:07;;;;;;;2.92;1.42;;;18.30;51.00;;;;;;5113418;28;20215;-71
2023/03/18 03:50:36;;;;;;;3.60;1.45;;;18.30;51.00;;;;;;5113656;28;20217;-71
2023/03/18 03:53:04;;;;;;;2.60;1.42;;;18.30;51.00;;;;;;5113549;28;20185;-71
2023/03/18 03:55:32;;;;;;;3.90;1.48;;;18.30;51.00;;;;;;5113399;28;20213;-71
2023/03/18 03:58:00;;;;;;;3.72;1.48;;;18.30;51.00;;;;;;5113088;28;20647;-71
2023/03/18 04:00:28;;;;;;;3.55;1.50;;;18.30;51.00;;;;;;5113142;28;20213;-71
2023/03/18 04:02:55;;;;;;;2.35;1.17;;;18.30;51.10;;;;;;5112981;28;20213;-71
2023/03/18 04:05:24;;;;;;;4.80;1.55;;;18.30;51.10;;;;;;5113141;28;20213;-71
2023/03/18 04:07:54;;;;;;;3.13;1.30;;;18.30;51.10;;;;;;5113283;28;20186;-71
2023/03/18 04:10:22;;;;;;;1.85;1.25;;;18.30;51.00;;;;;;5112929;28;20573;-71
2023/03/18 04:12:50;;;;;;;2.95;1.00;;;18.30;51.10;;;;;;5112995;28;20280;-71
2023/03/18 04:15:20;;;;;;;4.30;1.33;;;18.30;51.00;;;;;;5111787;28;20217;-71
2023/03/18 04:17:48;;;;;;;2.95;1.00;;;18.30;51.10;;;;;;5112899;28;20221;-71
2023/03/18 04:20:16;;;;;;;4.13;1.38;;;18.30;51.00;;;;;;5112771;28;20580;-71
2023/03/18 04:22:43;;;;;;;2.85;1.20;;;18.30;51.10;;;;;;5113110;28;20267;-72
2023/03/18 04:25:13;;;;;;;2.72;1.13;;;18.30;51.10;;;;;;5112897;28;20559;-71
2023/03/18 04:27:41;;;;;;;3.38;1.55;;;18.30;51.10;;;;;;5112731;28;20771;-71
2023/03/18 04:30:10;;;;;;;4.28;1.30;;;18.20;51.00;;;;;;5112900;28;20197;-71
2023/03/18 04:32:37;;;;;;;1.83;1.10;;;18.20;51.00;;;;;;5112979;28;20250;-71
2023/03/18 04:35:05;;;;;;;3.25;1.20;;;18.20;51.00;;;;;;5111702;28;20245;-70
2023/03/18 04:37:33;;;;;;;2.88;1.38;;;18.20;51.00;;;;;;5112927;28;20189;-71
2023/03/18 04:40:00;;;;;;;3.25;1.20;;;18.20;51.00;;;;;;5112920;28;20226;-71
2023/03/18 04:42:28;;;;;;;1.90;1.08;;;18.20;51.00;;;;;;5111624;28;20210;-71
2023/03/18 04:44:56;;;;;;;2.63;1.20;;;18.20;51.00;;;;;;5112824;28;20182;-70
2023/03/18 04:47:23;;;;;;;1.67;1.00;;;18.20;51.00;;;;;;5112839;28;20186;-71
2023/03/18 04:49:51;;;;;;;5.15;1.10;;;18.20;51.00;;;;;;5112813;28;20200;-70
2023/03/18 04:52:19;;;;;;;2.78;1.10;;;18.20;51.00;;;;;;5113102;28;20239;-72
2023/03/18 04:54:46;;;;;;;1.92;1.10;;;18.20;51.00;;;;;;5114225;28;20189;-71
2023/03/18 04:57:13;;;;;;;2.42;1.15;;;18.20;51.00;;;;;;5116838;28;20219;-71
2023/03/18 04:59:42;;;;;;;2.00;1.30;;;18.20;51.00;;;;;;5116675;28;20604;-71
2023/03/18 05:02:09;;;;;;;4.80;1.27;;;18.20;51.00;;;;;;5115803;28;20217;-71
2023/03/18 05:04:37;;;;;;;2.47;1.20;;;18.20;51.00;;;;;;5116902;28;20560;-71
2023/03/18 05:07:04;;;;;;;1.08;0.95;;;18.20;51.00;;;;;;5115765;28;20227;-71
2023/03/18 05:09:33;;;;;;;1.38;1.10;;;18.20;51.00;;;;;;5080874;28;20197;-71
2023/03/18 05:12:00;;;;;;;1.90;1.10;;;18.20;51.00;;;;;;5116355;28;20720;-71
2023/03/18 05:14:27;;;;;;;1.95;1.25;;;18.20;51.00;;;;;;5116698;28;20194;-71
2023/03/18 05:16:56;;;;;;;2.30;1.10;;;18.20;51.00;;;;;;5116469;28;20669;-71
2023/03/18 05:19:24;;;;;;;2.60;1.13;;;18.20;51.00;;;;;;5116919;28;20186;-71
2023/03/18 05:21:51;;;;;;;1.48;1.13;;;18.20;51.10;;;;;;5116563;28;20612;-70
2023/03/18 05:24:18;;;;;;;1.83;1.10;;;18.20;51.10;;;;;;5116430;28;20213;-71
2023/03/18 05:26:45;;;;;;;2.38;0.93;;;18.20;51.10;;;;;;5115962;28;20229;-71
2023/03/18 05:29:12;;;;;;;2.67;1.30;;;18.20;51.10;;;;;;5116594;28;20194;-71
2023/03/18 05:31:39;;;;;;;1.42;0.90;;;18.10;51.00;;;;;;5116446;28;20262;-71
2023/03/18 05:34:08;;;;;;;2.17;0.90;;;18.20;51.10;;;;;;5115987;28;20189;-71
2023/03/18 05:36:35;;;;;;;1.85;0.80;;;18.20;51.10;;;;;;5116602;28;20213;-70
2023/03/18 05:39:03;;;;;;;1.75;1.00;;;18.20;51.10;;;;;;5116288;28;20273;-71
2023/03/18 05:41:30;;;;;;;1.73;1.00;;;18.10;51.00;;;;;;5116156;28;20216;-71
2023/03/18 05:43:57;;;;;;;2.72;1.00;;;18.10;51.10;;;;;;5116040;28;20623;-70
2023/03/18 05:46:24;;;;;;;1.80;0.90;;;18.10;51.10;;;;;;5115686;28;20755;-70
2023/03/18 05:48:52;;;;;;;1.63;0.98;;;18.20;51.20;;;;;;5116046;28;20560;-71
2023/03/18 05:51:20;;;;;;;0.90;0.85;;;18.20;51.20;;;;;;5116126;28;20217;-71
2023/03/18 05:53:47;;;;;;;2.13;1.00;;;18.20;51.20;;;;;;5115874;28;20195;-71
2023/03/18 05:56:15;;;;;;;1.60;1.08;;;18.20;51.20;;;;;;5115945;28;20220;-71
2023/03/18 05:58:42;;;;;;;1.80;0.95;;;18.20;51.20;;;;;;5115469;28;20203;-71
2023/03/18 06:01:10;;;;;;;0.88;0.73;;;18.20;51.20;;;;;;5115500;28;20213;-71
2023/03/18 06:03:37;;;;;;;1.63;1.00;;;18.20;51.20;;;;;;5115225;28;20232;-71
2023/03/18 06:06:05;;;;;;;1.13;0.80;;;18.30;51.30;;;;;;5115159;28;20559;-71
2023/03/18 06:08:34;;;;;;;1.15;0.98;;;18.30;51.30;;;;;;5114500;28;20242;-71
2023/03/18 06:11:01;;;;;;;2.65;1.00;;;18.30;51.30;;;;;;5115108;28;20262;-71
2023/03/18 06:13:28;;;;;;;1.95;1.00;;;18.30;51.20;;;;;;5115321;28;20604;-71
2023/03/18 06:16:00;;;;;;;1.25;0.90;;;18.30;51.30;;;;;;5115514;28;20258;-71
2023/03/18 06:18:27;;;;;;;0.98;0.90;;;18.30;51.20;;;;;;5115167;28;20231;-71
2023/03/18 06:20:55;;;;;;;1.35;0.90;;;18.30;51.20;;;;;;5115396;28;20217;-71
2023/03/18 06:23:22;;;;;;;1.48;1.00;;;18.30;51.10;;;;;;5115272;28;20209;-71
2023/03/18 06:25:51;;;;;;;0.95;0.85;;;18.30;51.10;;;;;;5115287;27;20213;-71
2023/03/18 06:28:19;;;;;;;2.05;1.00;;;18.30;51.10;;;;;;5114956;28;20264;-71
2023/03/18 06:30:46;;;;;;;1.20;0.80;;;18.40;51.20;;;;;;5115015;27;20690;-71
2023/03/18 06:33:14;;;;;;;0.95;0.68;;;18.40;51.20;;;;;;5114867;27;20651;-71
2023/03/18 06:35:41;;;;;;;1.60;0.90;;;18.40;51.20;;;;;;5115021;28;20217;-71
2023/03/18 06:38:13;;;;;;;0.82;0.82;;;18.40;51.10;;;;;;5115035;28;20662;-71
2023/03/18 06:40:40;;;;;;;1.02;0.75;;;18.40;51.20;;;;;;5114914;28;20300;-71
2023/03/18 06:43:09;;;;;;;0.82;0.80;;;18.40;51.10;;;;;;5114951;28;20235;-71
2023/03/18 06:45:36;;;;;;;2.05;0.98;;;18.50;51.20;;;;;;5114890;28;20217;-71
2023/03/18 06:48:04;;;;;;;1.17;0.73;;;18.50;51.20;;;;;;5114965;28;20189;-71
2023/03/18 06:50:32;;;;;;;1.58;1.00;;;18.50;51.20;;;;;;5115250;28;20217;-70
2023/03/18 06:52:59;;;;;;;1.45;0.90;;;18.50;51.70;;;;;;5114876;28;20239;-71
2023/03/18 06:55:27;;;;;;;0.82;0.82;;;18.50;51.10;;;;;;5114633;28;20189;-71
2023/03/18 06:57:55;;;;;;;2.17;1.00;;;18.50;51.10;;;;;;5114340;28;20243;-71
2023/03/18 07:00:24;;;;;;;1.15;1.02;;;18.50;51.10;;;;;;5114252;27;20185;-71
2023/03/18 07:02:52;;;;;;;2.42;1.00;;;18.50;51.00;;;;;;5113282;28;20280;-70
2023/03/18 07:05:20;;;;;;;1.55;0.80;;;18.50;51.00;;;;;;5114783;28;20238;-71
2023/03/18 07:07:49;;;;;;;1.95;0.93;;;18.60;51.10;;;;;;5114149;28;20592;-71
2023/03/18 07:10:19;;;;;;;3.30;1.40;;;18.60;51.00;;;;;;5114349;28;20228;-71
2023/03/18 07:12:47;;;;;;;1.73;0.90;;;18.60;51.00;;;;;;5114156;28;20200;-71
2023/03/18 07:15:15;;;;;;;1.48;1.00;;;18.60;51.00;;;;;;5112790;28;20197;-71
2023/03/18 07:17:44;;;;;;;1.10;1.00;;;18.60;51.00;;;;;;5113056;28;20243;-71
2023/03/18 07:20:12;;;;;;;1.23;1.13;;;18.60;50.90;;;;;;5114198;28;20238;-71
2023/03/18 07:22:39;;;;;;;1.85;1.17;;;18.60;50.90;;;;;;5113801;28;20189;-72
2023/03/18 07:25:07;;;;;;;3.58;1.00;;;18.60;50.90;;;;;;5113728;28;20213;-71
2023/03/18 07:27:34;;;;;;;2.15;1.00;;;18.60;50.90;;;;;;5113656;28;20316;-71
2023/03/18 07:30:01;;;;;;;2.95;1.00;;;18.60;50.90;;;;;;5113891;28;20211;-71
2023/03/18 07:32:30;;;;;;;1.65;0.88;;;18.60;50.90;;;;;;5114142;28;20210;-71
2023/03/18 07:34:59;;;;;;;1.95;0.90;;;18.60;50.90;;;;;;5113817;28;20185;-70
2023/03/18 07:37:26;;;;;;;1.70;1.00;;;18.60;50.90;;;;;;5113808;28;20213;-71
2023/03/18 07:39:53;;;;;;;1.33;0.98;;;18.60;50.80;;;;;;5113824;28;20238;-71
2023/03/18 07:42:20;;;;;;;1.90;1.13;;;18.70;50.90;;;;;;5113603;28;20243;-71
2023/03/18 07:44:47;;;;;;;1.50;1.00;;;18.60;50.80;;;;;;5113602;28;20217;-71
2023/03/18 07:47:14;;;;;;;2.03;1.00;;;18.70;50.90;;;;;;5113885;27;20243;-70
2023/03/18 07:49:42;;;;;;;1.55;1.20;;;18.70;50.90;;;;;;5113728;28;20268;-71
2023/03/18 07:52:11;;;;;;;1.15;0.93;;;18.70;50.90;;;;;;5113808;27;20281;-71
2023/03/18 07:54:38;;;;;;;2.08;1.13;;;18.70;50.90;;;;;;5113558;28;20527;-71
2023/03/18 07:57:05;;;;;;;2.35;1.20;;;18.70;50.90;;;;;;5113498;28;20266;-71
2023/03/18 07:59:33;;;;;;;1.00;0.90;;;18.70;50.80;;;;;;5113164;28;20654;-71
2023/03/18 08:02:00;;;;;;;2.22;1.27;;;18.70;50.80;;;;;;5113541;28;20213;-71
2023/03/18 08:04:28;;;;;;;1.52;1.20;;;18.70;50.80;;;;;;5113018;28;20706;-71
2023/03/18 08:06:56;;;;;;;1.60;1.10;;;18.70;50.80;;;;;;5112336;28;20241;-71
2023/03/18 08:09:26;;;;;;;1.98;1.00;;;18.70;50.80;;;;;;5113328;28;20197;-71
2023/03/18 08:11:53;;;;;;;1.42;1.00;;;18.70;50.80;;;;;;5113134;28;20213;-71
2023/03/18 08:14:20;;;;;;;2.90;1.10;;;18.70;50.80;;;;;;5113181;28;20238;-71
2023/03/18 08:16:48;;;;;;;2.03;1.20;;;18.70;50.80;;;;;;5113297;28;20244;-72
2023/03/18 08:19:15;;;;;;;1.60;1.35;;;18.70;50.80;;;;;;5112939;28;20189;-71
2023/03/18 08:21:42;;;;;;;1.40;0.95;;;18.80;50.80;;;;;;5113066;28;20213;-71
2023/03/18 08:24:10;;;;;;;3.85;1.20;;;18.80;50.90;;;;;;5113099;28;20216;-71
2023/03/18 08:26:38;;;;;;;1.35;1.10;;;18.80;50.90;;;;;;5112866;28;20237;-71
2023/03/18 08:29:06;;;;;;;1.48;1.00;;;18.70;50.80;;;;;;5112719;28;20246;-71
2023/03/18 08:31:33;;;;;;;2.33;1.20;;;18.80;50.90;;;;;;5113094;28;20217;-71
2023/03/18 08:34:00;;;;;;;3.38;1.23;;;18.80;50.90;;;;;;5112685;28;20181;-71
2023/03/18 08:36:27;;;;;;;2.42;1.23;;;18.80;50.80;;;;;;5113046;28;20217;-71
2023/03/18 08:38:55;;;;;;;2.03;1.20;;;18.80;50.80;;;;;;5112613;28;20192;-71
2023/03/18 08:41:24;;;;;;;1.20;1.10;;;18.80;50.80;;;;;;5112966;28;20221;-71
2023/03/18 08:43:56;;;;;;;1.20;1.10;;;18.80;50.80;;;;;;5112523;28;20213;-71
2023/03/18 08:46:23;;;;;;;1.48;1.20;;;18.80;50.80;;;;;;5112846;28;20213;-71
2023/03/18 08:48:53;;;;;;;2.35;1.40;;;18.80;50.80;;;;;;5112869;28;20189;-71
2023/03/18 08:51:21;;;;;;;1.75;1.10;;;18.80;50.80;;;;;;5112646;28;20262;-71
2023/03/18 08:53:48;;;;;;;1.20;1.10;;;18.80;50.70;;;;;;5112520;28;20562;-71
2023/03/18 08:56:15;;;;;;;2.40;1.10;;;18.80;50.80;;;;;;5111568;28;20220;-71
2023/03/18 08:58:44;;;;;;;2.83;1.38;;;18.80;50.70;;;;;;5112597;28;20242;-72
2023/03/18 09:01:13;;;;;;;2.03;1.20;;;18.80;50.70;;;;;;5112357;28;20217;-71
2023/03/18 09:03:40;;;;;;;1.95;1.40;;;18.80;50.70;;;;;;5112421;28;20189;-71
2023/03/18 09:06:08;;;;;;;1.27;1.17;;;18.80;50.60;;;;;;5112639;28;20220;-70
2023/03/18 09:08:35;;;;;;;1.77;1.13;;;18.90;50.80;;;;;;5111199;28;20667;-71
2023/03/18 09:11:02;;;;;;;2.28;1.20;;;18.90;50.80;;;;;;5112389;28;20213;-71
2023/03/18 09:13:29;;;;;;;2.95;1.20;;;18.80;50.60;;;;;;5112686;28;20276;-71
2023/03/18 09:15:57;;;;;;;2.25;1.27;;;18.80;51.30;;;;;;5112571;28;20213;-71
2023/03/18 09:18:26;;;;;;;2.15;1.25;;;18.80;50.60;;;;;;5112243;28;20186;-71
2023/03/18 09:20:53;;;;;;;2.60;1.35;;;18.80;51.20;;;;;;5112248;28;20220;-71
2023/03/18 09:23:21;;;;;;;3.45;1.45;;;18.90;50.70;;;;;;5112361;28;20238;-71
2023/03/18 09:25:49;;;;;;;1.75;1.25;;;18.90;50.70;;;;;;5112406;28;20233;-71
2023/03/18 09:28:16;;;;;;;1.52;1.00;;;18.80;50.60;;;;;;5112357;28;20312;-71
2023/03/18 09:30:43;;;;;;;1.77;1.20;;;18.80;50.60;;;;;;5112242;28;20217;-71
2023/03/18 09:33:11;;;;;;;1.83;1.20;;;18.90;50.70;;;;;;5112172;28;20671;-70
2023/03/18 09:35:40;;;;;;;1.50;1.10;;;18.90;50.70;;;;;;5112365;28;20254;-70
2023/03/18 09:38:07;;;;;;;1.58;1.10;;;18.90;50.60;;;;;;5112093;28;20584;-71
2023/03/18 09:40:36;;;;;;;2.67;1.42;;;18.90;50.60;;;;;;5113255;28;20238;-71
2023/03/18 09:43:14;;;;;;;5.80;1.48;;;18.80;50.60;;;;;;5116092;28;20193;-71
2023/03/18 09:45:50;;;;;;;2.03;1.30;;;18.90;50.60;;;;;;5115578;28;20286;-71
2023/03/18 09:48:40;;;;;;;1.90;1.20;;;18.90;50.60;;;;;;5114822;28;20258;-71
2023/03/18 09:51:20;;;;;;;2.00;1.27;;;18.90;50.60;;;;;;5115965;28;20217;-71
2023/03/18 09:53:52;;;;;;;3.53;1.20;;;18.90;50.60;;;;;;5115546;28;20219;-71
2023/03/18 09:56:23;;;;;;;1.92;1.30;;;18.90;50.60;;;;;;5115665;28;20684;-71
2023/03/18 09:58:59;;;;;;;3.42;1.30;;;18.90;50.60;;;;;;5115494;28;20196;-71
2023/03/18 10:01:28;;;;;;;2.30;1.50;;;18.90;50.60;;;;;;5115553;28;20269;-71
2023/03/18 10:04:01;;;;;;;1.25;1.15;;;18.90;50.60;;;;;;5115482;28;20540;-71
2023/03/18 10:06:31;;;;;;;1.92;1.40;;;18.90;50.60;;;;;;5115825;28;20220;-71
2023/03/18 10:09:06;;;;;;;2.85;1.30;;;18.90;50.60;;;;;;5115304;28;20181;-71
2023/03/18 10:11:37;;;;;;;1.92;1.17;;;18.90;50.60;;;;;;5115587;28;20628;-71
2023/03/18 10:14:24;;;;;;;2.25;1.20;;;18.90;50.60;;;;;;5115146;28;20193;-71
2023/03/18 10:17:01;;;;;;;2.05;1.20;;;18.90;50.60;;;;;;5115595;28;20299;-71
2023/03/18 10:19:29;;;;;;;1.48;1.17;;;18.90;50.60;;;;;;5115109;28;20691;-71
2023/03/18 10:22:13;;;;;;;1.70;1.10;;;18.90;50.50;;;;;;5113826;28;20643;-71
2023/03/18 10:24:49;;;;;;;2.13;1.10;;;18.90;50.60;;;;;;5115224;28;20205;-71
2023/03/18 10:27:21;;;;;;;1.40;1.30;;;18.90;50.80;;;;;;5114889;28;20228;-71
2023/03/18 10:30:00;;;;;;;2.78;1.02;;;18.90;50.50;;;;;;5115264;28;20217;-72
2023/03/18 10:32:35;;;;;;;1.45;1.15;;;18.90;50.50;;;;;;5115977;27;20217;-71
2023/03/18 10:35:18;;;;;;;3.30;1.38;;;18.90;50.50;;;;;;5115284;28;20239;-71
2023/03/18 10:37:53;;;;;;;2.28;1.55;;;18.90;50.50;;;;;;5115087;28;20216;-71
2023/03/18 10:40:20;;;;;;;1.35;1.08;;;18.90;50.40;;;;;;5114830;28;20192;-71
2023/03/18 10:42:51;;;;;;;3.00;1.55;;;18.90;50.40;;;;;;5115168;28;20217;-71
2023/03/18 10:45:24;;;;;;;1.95;1.30;;;18.90;50.40;;;;;;5114577;28;20220;-71
2023/03/18 10:47:59;;;;;;;2.00;1.33;;;18.90;50.40;;;;;;5115011;28;20190;-71
2023/03/18 10:50:32;;;;;;;1.08;0.98;;;18.90;50.40;;;;;;5114816;28;20245;-71
2023/03/18 10:53:12;;;;;;;1.77;0.85;;;18.90;50.40;;;;;;5114840;27;20190;-71
2023/03/18 10:55:46;;;;;;;1.20;0.88;;;18.90;50.40;;;;;;5114378;27;20635;-71
2023/03/18 10:58:16;;;;;;;1.35;1.00;;;18.90;50.40;;;;;;5114397;28;20211;-71
2023/03/18 11:00:44;;;;;;;1.95;0.98;;;18.90;50.40;;;;;;5114658;28;20193;-71
2023/03/18 11:03:22;;;;;;;0.80;0.80;;;18.90;50.40;;;;;;5114701;27;20569;-71
2023/03/18 11:05:50;;;;;;;1.13;1.00;;;18.90;50.40;;;;;;5112961;28;20260;-71
2023/03/18 11:08:35;;;;;;;2.25;1.00;;;18.90;50.40;;;;;;5114233;28;20679;-71
2023/03/18 11:11:26;;;;;;;2.00;0.95;;;18.90;50.40;;;;;;5114460;28;20300;-70
2023/03/18 11:13:55;;;;;;;2.83;1.15;;;19.00;50.40;;;;;;5110983;28;20337;-71
2023/03/18 11:16:30;;;;;;;3.08;0.93;;;19.00;50.50;;;;;;5114366;28;20212;-71
2023/03/18 11:18:58;;;;;;;2.30;1.00;;;19.00;50.40;;;;;;5114057;28;20283;-71
2023/03/18 11:21:27;;;;;;;1.65;1.00;;;19.00;50.40;;;;;;5114222;28;20217;-71
2023/03/18 11:24:09;;;;;;;2.17;1.00;;;19.00;50.40;;;;;;5113943;28;20677;-71
2023/03/18 11:26:54;;;;;;;1.98;1.02;;;19.00;50.40;;;;;;5113789;28;20231;-71
2023/03/18 11:29:25;;;;;;;1.75;1.13;;;18.90;50.30;;;;;;5114173;28;20190;-71
2023/03/18 11:31:56;;;;;;;1.33;0.98;;;18.90;50.40;;;;;;5114113;28;20217;-71
2023/03/18 11:34:24;;;;;;;2.15;1.10;;;19.00;50.40;;;;;;5113936;28;20334;-71
2023/03/18 11:37:00;;;;;;;1.58;0.98;;;18.90;50.40;;;;;;5113791;28;20263;-71
2023/03/18 11:39:30;;;;;;;4.05;1.13;;;18.90;50.30;;;;;;5113978;28;20184;-71
2023/03/18 11:41:59;;;;;;;2.17;1.08;;;19.00;50.40;;;;;;5094562;28;20294;-71
2023/03/18 11:44:30;;;;;;;3.20;1.30;;;19.00;50.40;;;;;;5113644;28;20181;-71
2023/03/18 11:47:06;;;;;;;2.13;0.90;;;18.90;50.30;;;;;;5113450;28;20758;-71
2023/03/18 11:49:34;;;;;;;1.55;0.93;;;19.00;50.30;;;;;;5113718;28;20193;-71
2023/03/18 11:52:16;;;;;;;1.38;0.90;;;18.90;50.20;;;;;;5113736;28;20216;-70
2023/03/18 11:55:00;;;;;;;3.13;1.02;;;19.00;50.30;;;;;;5113180;28;20246;-71
2023/03/18 11:57:34;;;;;;;2.08;1.15;;;19.00;50.30;;;;;;5113401;28;20217;-71
2023/03/18 12:00:20;;;;;;;1.50;0.90;;;19.00;50.20;;;;;;5113479;28;20344;-71
2023/03/18 12:03:17;;;;;;;3.53;1.05;;;19.00;50.30;;;;;;5110615;28;20747;-70
2023/03/18 12:05:57;;;;;;;2.45;1.00;;;19.00;50.20;;;;;;5108026;28;20254;-71
2023/03/18 12:08:34;;;;;;;2.45;0.90;;;19.00;50.20;;;;;;5113028;28;20231;-71
2023/03/18 12:11:12;;;;;;;3.17;1.00;;;19.00;50.20;;;;;;5112926;28;20620;-71
2023/03/18 12:13:51;;;;;;;2.40;1.05;;;19.00;50.20;;;;;;5113341;28;20192;-71
2023/03/18 12:16:31;;;;;;;2.03;0.90;;;19.00;50.10;;;;;;5112838;28;20698;-71
2023/03/18 12:19:31;;;;;;;1.42;0.90;;;19.00;50.10;;;;;;5112932;28;20181;-71
2023/03/18 12:22:21;;;;;;;1.65;0.93;;;19.00;50.10;;;;;;5033230;28;20306;-70
2023/03/18 12:25:20;;;;;;;1.65;1.05;;;19.00;50.10;;;;;;5049790;28;20188;-71
2023/03/18 12:27:55;;;;;;;3.53;1.00;;;19.10;50.20;;;;;;5045883;28;20274;-71
2023/03/18 12:30:53;;;;;;;1.00;0.90;;;19.10;50.20;;;;;;5043093;28;20195;-71
2023/03/18 12:33:49;;;;;;;1.88;0.90;;;19.10;50.20;;;;;;5006328;28;20217;-70
2023/03/18 12:36:24;;;;;;;1.50;0.90;;;19.10;50.20;;;;;;5048979;28;20239;-70
2023/03/18 12:39:04;;;;;;;2.08;1.20;;;19.10;50.20;;;;;;5049148;28;20199;-71
2023/03/18 12:41:41;;;;;;;3.17;0.90;;;19.10;50.20;;;;;;5048876;28;20266;-71
2023/03/18 12:44:27;;;;;;;2.55;1.00;;;19.10;50.20;;;;;;5048986;28;20226;-70
2023/03/18 12:47:00;;;;;;;5.25;1.10;;;19.20;50.60;;;;;;5016188;28;20231;-71
2023/03/18 12:49:33;;;;;;;3.67;1.23;;;19.20;50.90;;;;;;5032374;28;20192;-71
2023/03/18 12:52:05;;;;;;;10.15;1.10;;;19.30;50.70;;;;;;5048934;28;20215;-70
2023/03/18 12:54:36;;;;;;;4.82;1.40;;;19.30;50.80;;;;;;5048737;28;20295;-71
2023/03/18 12:57:10;;;;;;;1.88;0.80;;;19.30;50.70;;;;;;5048539;28;20227;-71
2023/03/18 12:59:43;;;;;;;20.42;1.27;;;19.30;50.90;;;;;;5097437;28;20201;-71
2023/03/18 13:02:21;;;;;;;3.58;0.98;;;19.40;51.40;;;;;;5100175;28;20221;-71
2023/03/18 13:04:54;;;;;;;4.78;1.10;;;19.40;51.10;;;;;;5096400;28;20602;-70